createdAt,value
2022-12-19T00:02:17.008Z,-4.59
2022-12-19T00:07:22.185Z,-4.66
2022-12-19T00:12:30.063Z,-4.71
2022-12-19T00:17:35.523Z,-4.73
2022-12-19T00:22:42.319Z,-4.56
2022-12-19T00:27:50.226Z,-4.65
2022-12-19T00:32:55.580Z,-4.61
2022-12-19T00:38:00.447Z,-4.80
2022-12-19T00:43:09.324Z,-4.72
2022-12-19T00:48:14.302Z,-4.66
2022-12-19T00:53:21.751Z,-4.87
2022-12-19T00:58:34.422Z,-4.81
2022-12-19T01:03:49.321Z,-4.95
2022-12-19T01:09:04.146Z,-5.09
2022-12-19T01:14:16.087Z,-5.11
2022-12-19T01:19:24.082Z,-5.20
2022-12-19T01:24:29.810Z,-5.19
2022-12-19T01:29:51.149Z,-5.11
2022-12-19T01:34:57.887Z,-5.12
2022-12-19T01:40:02.775Z,-5.19
2022-12-19T01:45:34.013Z,-5.13
2022-12-19T01:50:56.217Z,-5.17
2022-12-19T01:56:12.300Z,-5.09
2022-12-19T02:01:22.165Z,-5.04
2022-12-19T02:06:28.346Z,-5.10
2022-12-19T02:11:36.522Z,-5.07
2022-12-19T02:16:56.125Z,-5.09
2022-12-19T02:22:16.100Z,-4.97
2022-12-19T02:27:56.412Z,-5.00
2022-12-19T02:33:08.695Z,-4.95
2022-12-19T02:38:21.558Z,-4.82
2022-12-19T02:43:31.750Z,-4.89
2022-12-19T02:48:40.064Z,-4.84
2022-12-19T02:53:46.344Z,-4.84
2022-12-19T02:58:58.363Z,-4.79
2022-12-19T03:04:17.752Z,-4.81
2022-12-19T03:09:35.162Z,-4.73
2022-12-19T03:14:40.561Z,-4.66
2022-12-19T03:19:48.650Z,-4.61
2022-12-19T03:24:53.616Z,-4.56
2022-12-19T03:30:05.108Z,-4.53
2022-12-19T03:35:18.299Z,-4.44
2022-12-19T03:40:27.575Z,-4.44
2022-12-19T03:45:40.861Z,-4.37
2022-12-19T03:50:57.146Z,-4.32
2022-12-19T03:56:09.261Z,-4.28
2022-12-19T04:01:14.799Z,-4.26
2022-12-19T04:06:22.963Z,-4.21
2022-12-19T04:11:30.552Z,-4.15
2022-12-19T04:16:42.740Z,-4.12
2022-12-19T04:21:55.867Z,-4.09
2022-12-19T04:27:04.644Z,-4.02
2022-12-19T04:32:11.249Z,-4.00
2022-12-19T04:37:19.173Z,-3.91
2022-12-19T04:42:24.634Z,-3.83
2022-12-19T04:47:36.807Z,-3.80
2022-12-19T04:52:44.735Z,-3.82
2022-12-19T04:57:49.645Z,-3.77
2022-12-19T05:02:54.685Z,-3.75
2022-12-19T05:08:05.072Z,-3.68
2022-12-19T05:13:09.962Z,-3.70
2022-12-19T05:18:14.917Z,-3.66
2022-12-19T05:23:23.059Z,-3.63
2022-12-19T05:28:28.482Z,-3.67
2022-12-19T05:33:33.552Z,-3.66
2022-12-19T05:38:41.758Z,-3.51
2022-12-19T05:43:48.001Z,-3.53
2022-12-19T05:48:53.051Z,-3.60
2022-12-19T05:54:03.090Z,-3.52
2022-12-19T05:59:08.138Z,-3.55
2022-12-19T06:04:23.225Z,-3.52
2022-12-19T06:09:36.515Z,-3.59
2022-12-19T06:14:41.535Z,-3.47
2022-12-19T06:19:47.995Z,-3.47
2022-12-19T06:24:55.566Z,-3.35
2022-12-19T06:30:00.769Z,-3.36
2022-12-19T06:35:05.910Z,-3.34
2022-12-19T06:40:37.215Z,-3.30
2022-12-19T06:45:42.300Z,-3.27
2022-12-19T06:50:47.410Z,-3.19
2022-12-19T06:55:58.170Z,-3.24
2022-12-19T07:01:03.936Z,-3.16
2022-12-19T07:06:13.068Z,-3.04
2022-12-19T07:11:20.930Z,-3.10
2022-12-19T07:16:28.273Z,-3.05
2022-12-19T07:21:33.596Z,-2.98
2022-12-19T07:26:41.339Z,-2.91
2022-12-19T07:31:46.292Z,-2.97
2022-12-19T07:36:57.541Z,-2.88
2022-12-19T07:42:06.288Z,-2.82
2022-12-19T07:47:24.829Z,-2.80
2022-12-19T07:52:31.725Z,-2.77
2022-12-19T07:57:39.357Z,-2.77
2022-12-19T08:02:44.946Z,-2.72
2022-12-19T08:07:50.793Z,-2.66
2022-12-19T08:12:58.821Z,-2.58
2022-12-19T08:18:04.579Z,-2.57
2022-12-19T08:23:09.790Z,-2.52
2022-12-19T08:28:19.013Z,-2.52
2022-12-19T08:33:24.096Z,-2.42
2022-12-19T08:38:29.027Z,-2.36
2022-12-19T08:43:38.303Z,-2.36
2022-12-19T08:48:43.753Z,-2.31
2022-12-19T08:53:49.563Z,-2.25
2022-12-19T08:58:57.870Z,-2.09
2022-12-19T09:04:49.467Z,-2.08
2022-12-19T09:09:28.061Z,-2.08
2022-12-19T09:14:38.878Z,-2.00
2022-12-19T09:19:47.790Z,-1.96
2022-12-19T09:24:55.700Z,-1.86
2022-12-19T09:30:03.615Z,-1.86
2022-12-19T09:35:09.871Z,-1.72
2022-12-19T09:40:21.568Z,-1.71
2022-12-19T09:45:49.717Z,-1.68
2022-12-19T09:51:10.477Z,-1.63
2022-12-19T09:56:19.059Z,-1.60
2022-12-19T10:01:31.290Z,-1.51
2022-12-19T10:07:13.863Z,-1.50
2022-12-19T10:12:45.730Z,-1.46
2022-12-19T10:18:00.317Z,-1.18
2022-12-19T10:23:47.416Z,-1.14
2022-12-19T10:29:06.399Z,-1.01
2022-12-19T10:34:29.171Z,-0.94
2022-12-19T10:39:43.084Z,-0.92
2022-12-19T10:44:50.447Z,-0.69
2022-12-19T10:50:02.672Z,-0.70
2022-12-19T10:55:25.618Z,-0.68
2022-12-19T11:00:33.041Z,-0.53
2022-12-19T11:05:52.649Z,-0.58
2022-12-19T11:12:43.419Z,-0.59
2022-12-19T11:22:59.184Z,-0.61
2022-12-19T11:29:32.717Z,-0.58
2022-12-19T11:30:48.668Z,-0.55
2022-12-19T11:33:17.858Z,-0.53
2022-12-19T11:38:39.265Z,-0.53
2022-12-19T11:43:56.364Z,-0.52
2022-12-19T11:49:07.295Z,-0.59
2022-12-19T11:54:23.403Z,-0.43
2022-12-19T11:59:34.688Z,-0.20
2022-12-19T12:04:56.180Z,-0.20
2022-12-19T12:15:13.763Z,-0.43
2022-12-19T12:28:47.950Z,-0.50
2022-12-19T12:31:10.596Z,-0.49
2022-12-19T12:31:46.583Z,-0.51
2022-12-19T12:35:51.345Z,-0.45
2022-12-19T12:38:31.188Z,-0.48
2022-12-19T12:43:58.159Z,-0.41
2022-12-19T12:49:09.696Z,-0.39
2022-12-19T12:54:17.672Z,-0.31
2022-12-19T12:59:36.997Z,-0.38
2022-12-19T13:04:50.724Z,-0.37
2022-12-19T13:10:25.874Z,-0.39
2022-12-19T13:15:45.193Z,-0.41
2022-12-19T13:20:59.253Z,-0.42
2022-12-19T13:26:04.778Z,-0.45
2022-12-19T13:31:27.511Z,-0.45
2022-12-19T13:39:49.477Z,-0.50
2022-12-19T13:42:30.435Z,-0.47
2022-12-19T13:47:47.367Z,-0.60
2022-12-19T13:52:57.035Z,-0.64
2022-12-19T13:58:06.707Z,-0.60
2022-12-19T14:03:25.998Z,-0.63
2022-12-19T14:08:32.040Z,-0.65
2022-12-19T14:14:08.261Z,-0.68
2022-12-19T14:19:25.855Z,-0.72
2022-12-19T14:24:33.533Z,-0.69
2022-12-19T14:30:28.971Z,-0.69
2022-12-19T14:36:09.840Z,-0.65
2022-12-19T14:41:09.383Z,-0.69
2022-12-19T14:54:11.823Z,-0.67
2022-12-19T14:54:42.091Z,-0.69
2022-12-19T14:58:50.976Z,-0.69
2022-12-19T15:02:52.517Z,-0.65
2022-12-19T15:08:03.826Z,-0.58
2022-12-19T15:14:47.700Z,-0.58
2022-12-19T15:18:54.593Z,-0.58
2022-12-19T15:24:02.143Z,-0.55
2022-12-19T15:29:19.868Z,-0.56
2022-12-19T15:34:44.332Z,-0.51
2022-12-19T15:39:58.316Z,-0.45
2022-12-19T15:45:05.678Z,-0.42
2022-12-19T15:50:29.734Z,-0.50
2022-12-19T15:55:39.651Z,-0.40
2022-12-19T16:00:49.954Z,-0.43
2022-12-19T16:05:55.298Z,-0.40
2022-12-19T16:11:03.025Z,-0.32
2022-12-19T16:16:15.871Z,-0.27
2022-12-19T16:21:33.188Z,-0.27
2022-12-19T16:26:43.067Z,-0.24
2022-12-19T16:31:48.489Z,-0.17
2022-12-19T16:36:55.306Z,-0.12
2022-12-19T16:42:03.193Z,-0.15
2022-12-19T16:47:14.661Z,-0.01
2022-12-19T16:52:19.843Z,0.01
2022-12-19T16:57:27.638Z,0.03
2022-12-19T17:03:00.198Z,0.05
2022-12-19T17:08:06.161Z,0.10
2022-12-19T17:13:17.653Z,0.05
2022-12-19T17:18:30.388Z,0.10
2022-12-19T17:23:38.692Z,0.14
2022-12-19T17:28:48.182Z,0.17
2022-12-19T17:33:53.519Z,0.21
2022-12-19T17:38:58.531Z,0.22
2022-12-19T17:44:06.086Z,0.18
2022-12-19T17:49:19.407Z,0.22
2022-12-19T17:54:25.975Z,0.30
2022-12-19T17:59:33.753Z,0.25
2022-12-19T18:04:38.743Z,0.33
2022-12-19T18:09:43.917Z,0.29
2022-12-19T18:14:51.743Z,0.26
2022-12-19T18:19:57.022Z,0.28
2022-12-19T18:25:02.195Z,0.22
2022-12-19T18:30:14.814Z,0.20
2022-12-19T18:35:24.572Z,0.26
2022-12-19T18:40:31.762Z,0.27
2022-12-19T18:45:41.884Z,0.34
2022-12-19T18:50:47.116Z,0.36
2022-12-19T18:55:52.579Z,0.34
2022-12-19T19:01:02.618Z,0.46
2022-12-19T19:06:23.185Z,0.42
2022-12-19T19:11:31.192Z,0.43
2022-12-19T19:16:40.220Z,0.39
2022-12-19T19:21:45.818Z,0.41
2022-12-19T19:26:54.113Z,0.39
2022-12-19T19:32:02.459Z,0.46
2022-12-19T19:37:11.450Z,0.43
2022-12-19T19:42:19.323Z,0.46
2022-12-19T19:47:37.431Z,0.48
2022-12-19T19:52:43.151Z,0.50
2022-12-19T19:57:49.640Z,0.48
2022-12-19T20:02:57.828Z,0.47
2022-12-19T20:08:03.452Z,0.49
2022-12-19T20:13:09.037Z,0.48
2022-12-19T20:18:17.418Z,0.47
2022-12-19T20:23:22.460Z,0.53
2022-12-19T20:28:27.815Z,0.48
2022-12-19T20:33:35.726Z,0.45
2022-12-19T20:38:41.196Z,0.42
2022-12-19T20:43:48.131Z,0.38
2022-12-19T20:48:57.237Z,0.41
2022-12-19T20:54:04.033Z,0.51
2022-12-19T20:59:11.418Z,0.40
2022-12-19T21:04:19.334Z,0.34
2022-12-19T21:09:24.529Z,0.32
2022-12-19T21:14:29.548Z,0.29
2022-12-19T21:19:38.162Z,0.25
2022-12-19T21:24:43.071Z,0.23
2022-12-19T21:29:48.236Z,0.23
2022-12-19T21:34:57.329Z,0.19
2022-12-19T21:40:03.272Z,0.19
2022-12-19T21:45:09.680Z,0.17
2022-12-19T21:50:18.511Z,0.16
2022-12-19T21:55:26.442Z,0.13
2022-12-19T22:00:31.849Z,0.14
2022-12-19T22:05:40.092Z,0.13
2022-12-19T22:10:44.944Z,0.09
2022-12-19T22:15:49.984Z,0.09
2022-12-19T22:21:00.679Z,0.10
2022-12-19T22:26:07.750Z,-0.02
2022-12-19T22:31:20.526Z,0.12
2022-12-19T22:36:29.461Z,0.09
2022-12-19T22:41:36.220Z,0.15
2022-12-19T22:46:41.291Z,0.07
2022-12-19T22:51:49.371Z,0.08
2022-12-19T22:56:54.749Z,0.11
2022-12-19T23:01:59.828Z,0.06
2022-12-19T23:07:07.428Z,0.06
2022-12-19T23:12:12.517Z,0.03
2022-12-19T23:17:17.580Z,0.06
2022-12-19T23:22:25.161Z,0.06
2022-12-19T23:27:30.531Z,0.07
2022-12-19T23:32:35.560Z,0.09
2022-12-19T23:37:47.312Z,0.10
2022-12-19T23:42:52.233Z,0.09
2022-12-19T23:47:57.460Z,0.07
2022-12-19T23:53:05.083Z,-0.01
2022-12-19T23:58:15.510Z,-0.06
